Sunapee, New Hampshire
Current Conditions -  °F | °C
As of 2:53 PM on Friday 19 Dec 2014 (Local Time) from KLEB Reporting Station
Overcast Overcast  
Wind Chill: 19°   Ceiling: 2100
Heat Index: 28°   Visibility: 10mi
Dew Point: 19°   Wind: 10mph
Humidity: 69%   Direction: 350°N
Pressure: 30.02"   Gusts: NA
Location:  43.39°N, 72.09°W
Report Text: KLEB 191953Z 35009KT 10SM OVC021 M02/M07 A3002 RMK AO2 SLP174 T10221072
Loading
Personal Weather Stations






























Interactive Weather Map New forecast layout! Learn more

10-Day Weather Forecast

Advertisements
Track Severe Weather on mobile